sensor_id;sensor_type;location;lat;lon;timestamp;pressure;altitude;pressure_sealevel;temperature;humidity
77321;BME280;66382;52.252;8.780;2023-05-10T00:00:48;99720.78;;;16.65;63.84
77321;BME280;66382;52.252;8.780;2023-05-10T00:03:13;99714.28;;;16.66;64.90
77321;BME280;66382;52.252;8.780;2023-05-10T00:05:39;99721.59;;;16.66;64.91
77321;BME280;66382;52.252;8.780;2023-05-10T00:08:05;99717.25;;;16.65;64.45
77321;BME280;66382;52.252;8.780;2023-05-10T00:10:31;99706.44;;;16.65;64.50
77321;BME280;66382;52.252;8.780;2023-05-10T00:12:56;99705.63;;;16.64;65.08
77321;BME280;66382;52.252;8.780;2023-05-10T00:15:23;99709.16;;;16.65;64.53
77321;BME280;66382;52.252;8.780;2023-05-10T00:17:49;99708.34;;;16.64;65.18
77321;BME280;66382;52.252;8.780;2023-05-10T00:20:15;99702.91;;;16.64;65.17
77321;BME280;66382;52.252;8.780;2023-05-10T00:22:40;99706.69;;;16.63;64.30
77321;BME280;66382;52.252;8.780;2023-05-10T00:25:08;99692.56;;;16.61;64.05
77321;BME280;66382;52.252;8.780;2023-05-10T00:27:33;99693.88;;;16.59;64.01
77321;BME280;66382;52.252;8.780;2023-05-10T00:29:59;99693.31;;;16.56;64.63
77321;BME280;66382;52.252;8.780;2023-05-10T00:32:26;99690.28;;;16.53;64.77
77321;BME280;66382;52.252;8.780;2023-05-10T00:34:52;99684.31;;;16.51;64.61
77321;BME280;66382;52.252;8.780;2023-05-10T00:37:18;99690.53;;;16.51;64.95
77321;BME280;66382;52.252;8.780;2023-05-10T00:39:43;99687.81;;;16.51;65.11
77321;BME280;66382;52.252;8.780;2023-05-10T00:42:09;99684.88;;;16.53;65.16
77321;BME280;66382;52.252;8.780;2023-05-10T00:44:35;99691.38;;;16.52;65.74
77321;BME280;66382;52.252;8.780;2023-05-10T00:47:00;99685.13;;;16.51;65.75
77321;BME280;66382;52.252;8.780;2023-05-10T00:49:28;99690.28;;;16.53;65.56
77321;BME280;66382;52.252;8.780;2023-05-10T00:51:54;99688.41;;;16.53;65.26
77321;BME280;66382;52.252;8.780;2023-05-10T00:54:20;99687.59;;;16.53;65.72
77321;BME280;66382;52.252;8.780;2023-05-10T00:56:45;99691.09;;;16.53;65.26
77321;BME280;66382;52.252;8.780;2023-05-10T00:59:11;99686.78;;;16.52;65.68
77321;BME280;66382;52.252;8.780;2023-05-10T01:01:37;99684.31;;;16.51;65.93
77321;BME280;66382;52.252;8.780;2023-05-10T01:04:03;99687.81;;;16.51;65.81
77321;BME280;66382;52.252;8.780;2023-05-10T01:06:31;99681.03;;;16.49;65.14
77321;BME280;66382;52.252;8.780;2023-05-10T01:08:56;99683.19;;;16.47;65.52
77321;BME280;66382;52.252;8.780;2023-05-10T01:11:22;99676.91;;;16.46;65.32
77321;BME280;66382;52.252;8.780;2023-05-10T01:13:52;99678.81;;;16.46;64.31
77321;BME280;66382;52.252;8.780;2023-05-10T01:16:20;99673.41;;;16.46;65.48
77321;BME280;66382;52.252;8.780;2023-05-10T01:18:46;99678.00;;;16.45;65.43
77321;BME280;66382;52.252;8.780;2023-05-10T01:21:19;99678.00;;;16.45;64.67
77321;BME280;66382;52.252;8.780;2023-05-10T01:27:27;99679.06;;;16.44;64.01
77321;BME280;66382;52.252;8.780;2023-05-10T01:33:01;99679.81;;;16.40;65.71
77321;BME280;66382;52.252;8.780;2023-05-10T01:35:32;99684.38;;;16.39;65.13
77321;BME280;66382;52.252;8.780;2023-05-10T01:38:09;99689.25;;;16.37;64.46
77321;BME280;66382;52.252;8.780;2023-05-10T01:40:42;99695.47;;;16.38;65.34
77321;BME280;66382;52.252;8.780;2023-05-10T01:43:17;99684.88;;;16.36;64.71
77321;BME280;66382;52.252;8.780;2023-05-10T01:45:49;99682.91;;;16.31;65.58
77321;BME280;66382;52.252;8.780;2023-05-10T01:48:18;99684.00;;;16.30;65.32
77321;BME280;66382;52.252;8.780;2023-05-10T01:50:46;99680.47;;;16.30;65.85
77321;BME280;66382;52.252;8.780;2023-05-10T01:53:18;99673.34;;;16.24;65.64
77321;BME280;66382;52.252;8.780;2023-05-10T01:55:47;99668.25;;;16.27;66.33
77321;BME280;66382;52.252;8.780;2023-05-10T01:58:17;99670.13;;;16.27;66.12
77321;BME280;66382;52.252;8.780;2023-05-10T02:00:45;99660.38;;;16.26;67.07
77321;BME280;66382;52.252;8.780;2023-05-10T02:03:12;99673.41;;;16.29;66.64
77321;BME280;66382;52.252;8.780;2023-05-10T02:05:41;99681.78;;;16.27;66.07
77321;BME280;66382;52.252;8.780;2023-05-10T02:08:09;99678.00;;;16.28;66.89
77321;BME280;66382;52.252;8.780;2023-05-10T02:10:35;99677.19;;;16.28;66.59
77321;BME280;66382;52.252;8.780;2023-05-10T02:13:02;99673.41;;;16.29;66.84
77321;BME280;66382;52.252;8.780;2023-05-10T02:15:29;99675.31;;;16.28;66.64
77321;BME280;66382;52.252;8.780;2023-05-10T02:17:56;99668.50;;;16.26;66.02
77321;BME280;66382;52.252;8.780;2023-05-10T02:20:23;99675.81;;;16.25;66.79
77321;BME280;66382;52.252;8.780;2023-05-10T02:22:53;99675.00;;;16.25;65.99
77321;BME280;66382;52.252;8.780;2023-05-10T02:25:21;99676.03;;;16.24;67.04
77321;BME280;66382;52.252;8.780;2023-05-10T02:27:48;99671.72;;;16.23;66.76
77321;BME280;66382;52.252;8.780;2023-05-10T02:30:15;99674.66;;;16.21;66.86
77321;BME280;66382;52.252;8.780;2023-05-10T02:32:41;99672.75;;;16.22;66.92
77321;BME280;66382;52.252;8.780;2023-05-10T02:35:09;99669.50;;;16.20;66.65
77321;BME280;66382;52.252;8.780;2023-05-10T02:37:37;99673.84;;;16.21;66.30
77321;BME280;66382;52.252;8.780;2023-05-10T02:40:06;99669.22;;;16.21;66.23
77321;BME280;66382;52.252;8.780;2023-05-10T02:42:35;99667.03;;;16.18;66.60
77321;BME280;66382;52.252;8.780;2023-05-10T02:45:07;99665.94;;;16.19;66.34
77321;BME280;66382;52.252;8.780;2023-05-10T02:47:33;99666.44;;;16.16;67.69
77321;BME280;66382;52.252;8.780;2023-05-10T02:49:59;99669.81;;;16.06;66.92
77321;BME280;66382;52.252;8.780;2023-05-10T02:52:28;99670.53;;;16.02;67.06
77321;BME280;66382;52.252;8.780;2023-05-10T02:54:59;99671.25;;;15.97;66.31
77321;BME280;66382;52.252;8.780;2023-05-10T02:57:31;99682.06;;;15.97;66.81
77321;BME280;66382;52.252;8.780;2023-05-10T02:59:57;99686.09;;;15.95;66.80
77321;BME280;66382;52.252;8.780;2023-05-10T03:02:23;99680.69;;;15.95;67.36
77321;BME280;66382;52.252;8.780;2023-05-10T03:04:49;99682.00;;;15.92;67.62
77321;BME280;66382;52.252;8.780;2023-05-10T03:07:14;99670.28;;;15.86;67.43
77321;BME280;66382;52.252;8.780;2023-05-10T03:09:41;99673.78;;;15.87;67.28
77321;BME280;66382;52.252;8.780;2023-05-10T03:12:11;99674.28;;;15.84;66.66
77321;BME280;66382;52.252;8.780;2023-05-10T03:14:48;99671.81;;;15.82;65.57
77321;BME280;66382;52.252;8.780;2023-05-10T03:17:19;99670.19;;;15.81;66.20
77321;BME280;66382;52.252;8.780;2023-05-10T03:19:53;99663.38;;;15.79;65.90
77321;BME280;66382;52.252;8.780;2023-05-10T03:22:24;99672.00;;;15.76;65.95
77321;BME280;66382;52.252;8.780;2023-05-10T03:24:53;99678.22;;;15.76;66.77
77321;BME280;66382;52.252;8.780;2023-05-10T03:27:20;99677.63;;;15.74;67.28
77321;BME280;66382;52.252;8.780;2023-05-10T03:29:50;99676.00;;;15.73;66.61
77321;BME280;66382;52.252;8.780;2023-05-10T03:32:16;99676.47;;;15.70;66.57
77321;BME280;66382;52.252;8.780;2023-05-10T03:34:42;99677.75;;;15.67;67.11
77321;BME280;66382;52.252;8.780;2023-05-10T03:37:08;99677.41;;;15.64;66.62
77321;BME280;66382;52.252;8.780;2023-05-10T03:39:33;99683.03;;;15.62;66.24
77321;BME280;66382;52.252;8.780;2023-05-10T03:41:59;99682.22;;;15.62;67.38
77321;BME280;66382;52.252;8.780;2023-05-10T03:44:25;99689.53;;;15.61;68.27
77321;BME280;66382;52.252;8.780;2023-05-10T03:46:52;99692.72;;;15.58;67.66
77321;BME280;66382;52.252;8.780;2023-05-10T03:49:18;99687.06;;;15.60;67.81
77321;BME280;66382;52.252;8.780;2023-05-10T03:51:43;99688.44;;;15.62;67.32
77321;BME280;66382;52.252;8.780;2023-05-10T03:54:09;99693.31;;;15.60;67.82
77321;BME280;66382;52.252;8.780;2023-05-10T03:56:35;99702.44;;;15.59;67.52
77321;BME280;66382;52.252;8.780;2023-05-10T03:59:00;99699.41;;;15.56;68.19
77321;BME280;66382;52.252;8.780;2023-05-10T04:01:26;99709.16;;;15.57;67.74
77321;BME280;66382;52.252;8.780;2023-05-10T04:03:53;99710.22;;;15.56;67.82
77321;BME280;66382;52.252;8.780;2023-05-10T04:06:19;99698.13;;;15.58;67.32
77321;BME280;66382;52.252;8.780;2023-05-10T04:08:44;99699.97;;;15.58;68.09
77321;BME280;66382;52.252;8.780;2023-05-10T04:11:11;99694.56;;;15.58;67.81
77321;BME280;66382;52.252;8.780;2023-05-10T04:13:37;99697.75;;;15.55;67.38
77321;BME280;66382;52.252;8.780;2023-05-10T04:16:03;99693.44;;;15.54;67.95
77321;BME280;66382;52.252;8.780;2023-05-10T04:18:29;99693.91;;;15.51;68.16
77321;BME280;66382;52.252;8.780;2023-05-10T04:20:56;99691.22;;;15.51;67.96
77321;BME280;66382;52.252;8.780;2023-05-10T04:23:22;99694.75;;;15.51;68.34
77321;BME280;66382;52.252;8.780;2023-05-10T04:25:47;99700.13;;;15.51;68.64
77321;BME280;66382;52.252;8.780;2023-05-10T04:28:13;99699.56;;;15.49;68.33
77321;BME280;66382;52.252;8.780;2023-05-10T04:30:39;99700.38;;;15.49;68.22
77321;BME280;66382;52.252;8.780;2023-05-10T04:33:05;99697.66;;;15.49;68.42
77321;BME280;66382;52.252;8.780;2023-05-10T04:35:31;99697.44;;;15.51;67.94
77321;BME280;66382;52.252;8.780;2023-05-10T04:37:58;99703.06;;;15.49;68.28
77321;BME280;66382;52.252;8.780;2023-05-10T04:40:23;99708.72;;;15.48;68.85
77321;BME280;66382;52.252;8.780;2023-05-10T04:42:49;99701.66;;;15.47;68.06
77321;BME280;66382;52.252;8.780;2023-05-10T04:45:15;99690.66;;;15.37;68.09
77321;BME280;66382;52.252;8.780;2023-05-10T04:47:40;99709.44;;;15.43;67.49
77321;BME280;66382;52.252;8.780;2023-05-10T04:50:07;99707.56;;;15.44;67.14
77321;BME280;66382;52.252;8.780;2023-05-10T04:52:33;99708.59;;;15.43;67.53
77321;BME280;66382;52.252;8.780;2023-05-10T04:55:00;99715.56;;;15.39;68.62
77321;BME280;66382;52.252;8.780;2023-05-10T04:57:26;99719.09;;;15.39;67.26
77321;BME280;66382;52.252;8.780;2023-05-10T04:59:52;99720.97;;;15.39;68.52
77321;BME280;66382;52.252;8.780;2023-05-10T05:02:18;99724.25;;;15.41;68.66
77321;BME280;66382;52.252;8.780;2023-05-10T05:04:43;99731.50;;;15.40;67.83
77321;BME280;66382;52.252;8.780;2023-05-10T05:07:09;99737.28;;;15.32;68.11
77321;BME280;66382;52.252;8.780;2023-05-10T05:09:35;99740.47;;;15.29;66.95
77321;BME280;66382;52.252;8.780;2023-05-10T05:12:02;99743.88;;;15.24;67.98
77321;BME280;66382;52.252;8.780;2023-05-10T05:14:28;99734.88;;;15.19;68.27
77321;BME280;66382;52.252;8.780;2023-05-10T05:16:53;99754.91;;;15.23;68.13
77321;BME280;66382;52.252;8.780;2023-05-10T05:19:19;99756.47;;;15.19;67.10
77321;BME280;66382;52.252;8.780;2023-05-10T05:21:45;99760.09;;;15.13;68.51
77321;BME280;66382;52.252;8.780;2023-05-10T05:24:10;99763.75;;;15.07;67.53
77321;BME280;66382;52.252;8.780;2023-05-10T05:26:36;99763.75;;;15.07;67.53
77321;BME280;66382;52.252;8.780;2023-05-10T05:29:03;99770.19;;;15.05;67.33
77321;BME280;66382;52.252;8.780;2023-05-10T05:31:29;99771.50;;;15.03;67.71
77321;BME280;66382;52.252;8.780;2023-05-10T05:33:55;99780.06;;;15.00;68.22
77321;BME280;66382;52.252;8.780;2023-05-10T05:36:21;99775.16;;;14.97;67.84
77321;BME280;66382;52.252;8.780;2023-05-10T05:38:47;99787.47;;;14.93;67.90
77321;BME280;66382;52.252;8.780;2023-05-10T05:41:13;99792.53;;;14.89;67.92
77321;BME280;66382;52.252;8.780;2023-05-10T05:43:39;99791.34;;;14.85;67.36
77321;BME280;66382;52.252;8.780;2023-05-10T05:46:06;99798.84;;;14.83;68.03
77321;BME280;66382;52.252;8.780;2023-05-10T05:48:31;99795.78;;;14.79;67.67
77321;BME280;66382;52.252;8.780;2023-05-10T05:50:57;99799.53;;;14.78;67.56
77321;BME280;66382;52.252;8.780;2023-05-10T05:53:23;99810.91;;;14.80;67.92
77321;BME280;66382;52.252;8.780;2023-05-10T05:55:52;99807.19;;;14.81;67.97
77321;BME280;66382;52.252;8.780;2023-05-10T05:58:18;99819.25;;;14.79;68.10
77321;BME280;66382;52.252;8.780;2023-05-10T06:00:44;99819.25;;;14.79;68.14
77321;BME280;66382;52.252;8.780;2023-05-10T06:03:11;99811.16;;;14.79;68.67
77321;BME280;66382;52.252;8.780;2023-05-10T06:05:37;99826.63;;;14.83;68.50
77321;BME280;66382;52.252;8.780;2023-05-10T06:08:02;99830.41;;;14.82;67.97
77321;BME280;66382;52.252;8.780;2023-05-10T06:10:28;99831.69;;;14.80;67.73
77321;BME280;66382;52.252;8.780;2023-05-10T06:12:54;99817.72;;;14.71;68.42
77321;BME280;66382;52.252;8.780;2023-05-10T06:15:20;99836.41;;;14.84;68.29
77321;BME280;66382;52.252;8.780;2023-05-10T06:17:45;99837.81;;;14.87;69.05
77321;BME280;66382;52.252;8.780;2023-05-10T06:20:13;99839.44;;;14.88;68.57
77321;BME280;66382;52.252;8.780;2023-05-10T06:22:39;99854.72;;;14.94;68.10
77321;BME280;66382;52.252;8.780;2023-05-10T06:25:05;99856.34;;;14.95;68.10
77321;BME280;66382;52.252;8.780;2023-05-10T06:27:31;99862.56;;;14.96;67.33
77321;BME280;66382;52.252;8.780;2023-05-10T06:29:57;99857.41;;;14.94;69.10
77321;BME280;66382;52.252;8.780;2023-05-10T06:32:23;99855.53;;;14.95;68.46
77321;BME280;66382;52.252;8.780;2023-05-10T06:34:48;99855.31;;;14.96;68.08
77321;BME280;66382;52.252;8.780;2023-05-10T06:37:16;99866.31;;;14.95;68.31
77321;BME280;66382;52.252;8.780;2023-05-10T06:39:41;99867.72;;;14.97;68.55
77321;BME280;66382;52.252;8.780;2023-05-10T06:42:07;99869.16;;;15.00;68.19
77321;BME280;66382;52.252;8.780;2023-05-10T06:44:33;99874.31;;;15.01;69.35
77321;BME280;66382;52.252;8.780;2023-05-10T06:46:58;99879.94;;;15.00;68.28
77321;BME280;66382;52.252;8.780;2023-05-10T06:49:24;99886.16;;;15.00;67.84
77321;BME280;66382;52.252;8.780;2023-05-10T06:51:50;99885.56;;;14.98;68.56
77321;BME280;66382;52.252;8.780;2023-05-10T06:54:17;99888.25;;;14.98;68.65
77321;BME280;66382;52.252;8.780;2023-05-10T06:56:43;99892.41;;;15.01;68.00
77321;BME280;66382;52.252;8.780;2023-05-10T06:59:08;99882.53;;;14.95;68.46
77321;BME280;66382;52.252;8.780;2023-05-10T07:01:34;99890.16;;;14.98;67.86
77321;BME280;66382;52.252;8.780;2023-05-10T07:04:00;99897.22;;;14.99;68.06
77321;BME280;66382;52.252;8.780;2023-05-10T07:06:26;99894.03;;;15.02;69.14
77321;BME280;66382;52.252;8.780;2023-05-10T07:08:51;99895.22;;;15.06;68.64
77321;BME280;66382;52.252;8.780;2023-05-10T07:11:18;99902.25;;;15.07;68.20
77321;BME280;66382;52.252;8.780;2023-05-10T07:13:44;99901.44;;;15.07;68.69
77321;BME280;66382;52.252;8.780;2023-05-10T07:16:10;99907.31;;;15.03;67.91
77321;BME280;66382;52.252;8.780;2023-05-10T07:18:35;99910.22;;;15.02;68.55
77321;BME280;66382;52.252;8.780;2023-05-10T07:21:01;99912.72;;;15.03;68.39
77321;BME280;66382;52.252;8.780;2023-05-10T07:23:27;99918.09;;;15.03;68.20
77321;BME280;66382;52.252;8.780;2023-05-10T07:25:53;99917.03;;;15.04;68.31
77321;BME280;66382;52.252;8.780;2023-05-10T07:28:20;99915.16;;;15.05;68.73
77321;BME280;66382;52.252;8.780;2023-05-10T07:30:46;99922.66;;;15.03;68.98
77321;BME280;66382;52.252;8.780;2023-05-10T07:33:13;99925.72;;;15.07;68.35
77321;BME280;66382;52.252;8.780;2023-05-10T07:35:39;99921.03;;;15.02;68.29
77321;BME280;66382;52.252;8.780;2023-05-10T07:38:05;99926.78;;;15.05;68.46
77321;BME280;66382;52.252;8.780;2023-05-10T07:40:31;99920.47;;;15.12;69.41
77321;BME280;66382;52.252;8.780;2023-05-10T07:42:57;99929.88;;;15.21;68.97
77321;BME280;66382;52.252;8.780;2023-05-10T07:45:24;99930.56;;;15.28;68.61
77321;BME280;66382;52.252;8.780;2023-05-10T07:47:50;99923.75;;;15.25;67.99
77321;BME280;66382;52.252;8.780;2023-05-10T07:50:15;99929.88;;;15.33;68.52
77321;BME280;66382;52.252;8.780;2023-05-10T07:52:41;99937.25;;;15.37;68.56
77321;BME280;66382;52.252;8.780;2023-05-10T07:55:08;99935.63;;;15.36;68.21
77321;BME280;66382;52.252;8.780;2023-05-10T07:57:34;99928.22;;;15.32;68.56
77321;BME280;66382;52.252;8.780;2023-05-10T08:00:00;99938.22;;;15.31;68.24
77321;BME280;66382;52.252;8.780;2023-05-10T08:02:27;99935.84;;;15.35;68.28
77321;BME280;66382;52.252;8.780;2023-05-10T08:04:53;99945.25;;;15.44;68.70
77321;BME280;66382;52.252;8.780;2023-05-10T08:07:19;99941.63;;;15.62;68.47
77321;BME280;66382;52.252;8.780;2023-05-10T08:09:44;99947.72;;;15.69;68.67
77321;BME280;66382;52.252;8.780;2023-05-10T08:12:10;99948.47;;;15.76;68.57
77321;BME280;66382;52.252;8.780;2023-05-10T08:14:36;99940.25;;;15.71;68.01
77321;BME280;66382;52.252;8.780;2023-05-10T08:17:02;99950.94;;;15.78;68.02
77321;BME280;66382;52.252;8.780;2023-05-10T08:19:29;99931.63;;;15.62;67.33
77321;BME280;66382;52.252;8.780;2023-05-10T08:21:54;99951.88;;;15.72;68.31
77321;BME280;66382;52.252;8.780;2023-05-10T08:24:20;99951.06;;;15.71;68.39
77321;BME280;66382;52.252;8.780;2023-05-10T08:26:46;99957.66;;;15.75;67.79
77321;BME280;66382;52.252;8.780;2023-05-10T08:29:12;99951.88;;;15.72;67.98
77321;BME280;66382;52.252;8.780;2023-05-10T08:31:37;99954.94;;;15.75;68.96
77321;BME280;66382;52.252;8.780;2023-05-10T08:34:03;99961.97;;;15.88;68.20
77321;BME280;66382;52.252;8.780;2023-05-10T08:36:30;99962.53;;;16.02;69.05
77321;BME280;66382;52.252;8.780;2023-05-10T08:38:56;99958.75;;;16.15;68.72
77321;BME280;66382;52.252;8.780;2023-05-10T08:41:22;99954.50;;;16.19;67.84
77321;BME280;66382;52.252;8.780;2023-05-10T08:43:49;99962.50;;;16.25;68.30
77321;BME280;66382;52.252;8.780;2023-05-10T08:46:16;99960.09;;;16.41;68.34
77321;BME280;66382;52.252;8.780;2023-05-10T08:48:43;99965.22;;;16.54;68.59
77321;BME280;66382;52.252;8.780;2023-05-10T08:51:09;99957.97;;;16.71;67.63
77321;BME280;66382;52.252;8.780;2023-05-10T08:53:38;99970.44;;;16.84;67.83
77321;BME280;66382;52.252;8.780;2023-05-10T08:56:05;99962.59;;;17.00;68.67
77321;BME280;66382;52.252;8.780;2023-05-10T08:58:31;99965.91;;;17.18;67.41
77321;BME280;66382;52.252;8.780;2023-05-10T09:00:57;99970.81;;;17.22;67.14
77321;BME280;66382;52.252;8.780;2023-05-10T09:03:23;99970.09;;;17.26;68.39
77321;BME280;66382;52.252;8.780;2023-05-10T09:05:49;99974.34;;;17.22;66.95
77321;BME280;66382;52.252;8.780;2023-05-10T09:08:15;99978.38;;;17.19;66.95
77321;BME280;66382;52.252;8.780;2023-05-10T09:10:42;99983.59;;;17.09;67.43
77321;BME280;66382;52.252;8.780;2023-05-10T09:13:10;99979.75;;;17.05;66.92
77321;BME280;66382;52.252;8.780;2023-05-10T09:15:36;99989.16;;;17.03;67.48
77321;BME280;66382;52.252;8.780;2023-05-10T09:18:02;99987.03;;;17.05;67.02
77321;BME280;66382;52.252;8.780;2023-05-10T09:20:27;99990.66;;;17.10;67.19
77321;BME280;66382;52.252;8.780;2023-05-10T09:22:53;99990.50;;;17.17;67.55
77321;BME280;66382;52.252;8.780;2023-05-10T09:25:19;99989.94;;;17.32;66.96
77321;BME280;66382;52.252;8.780;2023-05-10T09:27:47;99991.75;;;17.43;66.51
77321;BME280;66382;52.252;8.780;2023-05-10T09:30:15;99980.44;;;17.46;66.93
77321;BME280;66382;52.252;8.780;2023-05-10T09:32:44;99979.34;;;17.47;67.02
77321;BME280;66382;52.252;8.780;2023-05-10T09:35:11;99984.69;;;17.59;66.83
77321;BME280;66382;52.252;8.780;2023-05-10T09:37:39;99999.88;;;17.77;67.25
77321;BME280;66382;52.252;8.780;2023-05-10T09:40:06;99993.00;;;17.86;66.38
77321;BME280;66382;52.252;8.780;2023-05-10T09:42:32;99992.19;;;17.86;66.59
77321;BME280;66382;52.252;8.780;2023-05-10T09:45:02;99999.06;;;17.76;66.17
77321;BME280;66382;52.252;8.780;2023-05-10T09:47:28;99996.78;;;17.68;65.40
77321;BME280;66382;52.252;8.780;2023-05-10T09:49:54;100009.81;;;17.54;66.39
77321;BME280;66382;52.252;8.780;2023-05-10T09:52:19;100015.41;;;17.48;65.89
77321;BME280;66382;52.252;8.780;2023-05-10T09:54:52;100015.50;;;17.36;65.56
77321;BME280;66382;52.252;8.780;2023-05-10T09:57:20;100021.72;;;17.36;66.04
77321;BME280;66382;52.252;8.780;2023-05-10T09:59:46;100013.91;;;17.40;65.82
77321;BME280;66382;52.252;8.780;2023-05-10T10:02:14;100018.19;;;17.53;66.19
77321;BME280;66382;52.252;8.780;2023-05-10T10:04:40;100016.31;;;17.87;66.85
77321;BME280;66382;52.252;8.780;2023-05-10T10:07:06;100008.81;;;18.11;65.96
77321;BME280;66382;52.252;8.780;2023-05-10T10:09:33;100017.31;;;18.20;66.00
77321;BME280;66382;52.252;8.780;2023-05-10T10:12:00;100016.94;;;18.11;65.34
77321;BME280;66382;52.252;8.780;2023-05-10T10:14:26;100012.63;;;17.93;64.79
77321;BME280;66382;52.252;8.780;2023-05-10T10:16:53;100011.72;;;17.88;65.10
77321;BME280;66382;52.252;8.780;2023-05-10T10:19:21;100012.34;;;17.95;65.93
77321;BME280;66382;52.252;8.780;2023-05-10T10:21:47;100010.19;;;18.14;66.31
77321;BME280;66382;52.252;8.780;2023-05-10T10:24:13;100009.13;;;18.37;66.18
77321;BME280;66382;52.252;8.780;2023-05-10T10:26:40;100006.47;;;18.64;65.87
77321;BME280;66382;52.252;8.780;2023-05-10T10:29:14;99994.78;;;18.85;65.54
77321;BME280;66382;52.252;8.780;2023-05-10T10:31:47;100006.94;;;19.05;64.74
77321;BME280;66382;52.252;8.780;2023-05-10T10:34:24;100013.44;;;19.04;64.33
77321;BME280;66382;52.252;8.780;2023-05-10T10:36:51;100012.44;;;19.10;65.34
77321;BME280;66382;52.252;8.780;2023-05-10T10:39:20;99995.59;;;19.13;64.33
77321;BME280;66382;52.252;8.780;2023-05-10T10:41:50;100005.66;;;19.12;64.11
77321;BME280;66382;52.252;8.780;2023-05-10T10:44:36;100006.56;;;19.23;64.56
77321;BME280;66382;52.252;8.780;2023-05-10T10:47:04;100009.16;;;19.40;64.46
77321;BME280;66382;52.252;8.780;2023-05-10T10:49:33;100000.91;;;19.62;64.52
77321;BME280;66382;52.252;8.780;2023-05-10T10:52:20;99998.09;;;19.79;64.16
77321;BME280;66382;52.252;8.780;2023-05-10T10:54:50;100002.50;;;19.90;62.77
77321;BME280;66382;52.252;8.780;2023-05-10T10:57:18;100007.75;;;20.02;62.84
77321;BME280;66382;52.252;8.780;2023-05-10T10:59:44;99994.59;;;19.89;61.99
77321;BME280;66382;52.252;8.780;2023-05-10T11:02:33;100004.13;;;19.86;63.17
77321;BME280;66382;52.252;8.780;2023-05-10T11:08:16;100008.84;;;20.06;62.67
77321;BME280;66382;52.252;8.780;2023-05-10T11:10:54;100007.78;;;20.12;63.16
77321;BME280;66382;52.252;8.780;2023-05-10T11:13:28;100010.81;;;20.16;61.87
77321;BME280;66382;52.252;8.780;2023-05-10T11:15:54;100013.78;;;20.14;61.67
77321;BME280;66382;52.252;8.780;2023-05-10T11:18:23;100019.47;;;20.08;60.83
77321;BME280;66382;52.252;8.780;2023-05-10T11:20:57;100018.38;;;20.04;61.56
77321;BME280;66382;52.252;8.780;2023-05-10T11:23:28;100019.75;;;20.06;61.40
77321;BME280;66382;52.252;8.780;2023-05-10T11:25:54;100010.78;;;20.11;60.54
77321;BME280;66382;52.252;8.780;2023-05-10T11:28:20;100016.50;;;20.14;60.76
77321;BME280;66382;52.252;8.780;2023-05-10T11:30:46;100020.63;;;20.22;61.26
77321;BME280;66382;52.252;8.780;2023-05-10T11:33:16;100013.81;;;20.19;60.87
77321;BME280;66382;52.252;8.780;2023-05-10T11:35:42;100004.31;;;20.22;60.21
77321;BME280;66382;52.252;8.780;2023-05-10T11:38:11;100023.91;;;20.24;60.27
77321;BME280;66382;52.252;8.780;2023-05-10T11:40:37;100012.72;;;20.15;59.44
77321;BME280;66382;52.252;8.780;2023-05-10T11:43:04;100019.25;;;20.19;59.68
77321;BME280;66382;52.252;8.780;2023-05-10T11:45:32;100013.78;;;20.14;60.28
77321;BME280;66382;52.252;8.780;2023-05-10T11:47:59;100028.19;;;20.10;60.50
77321;BME280;66382;52.252;8.780;2023-05-10T11:50:25;100032.56;;;20.11;59.81
77321;BME280;66382;52.252;8.780;2023-05-10T11:52:51;100021.44;;;20.17;59.91
77321;BME280;66382;52.252;8.780;2023-05-10T11:55:19;100019.25;;;20.19;59.80
77321;BME280;66382;52.252;8.780;2023-05-10T11:57:45;100013.84;;;20.25;60.61
77321;BME280;66382;52.252;8.780;2023-05-10T12:00:11;100025.91;;;20.39;60.55
77321;BME280;66382;52.252;8.780;2023-05-10T12:02:38;100037.13;;;20.48;60.04
77321;BME280;66382;52.252;8.780;2023-05-10T12:05:05;100026.75;;;20.50;58.96
77321;BME280;66382;52.252;8.780;2023-05-10T12:07:31;100017.22;;;20.47;59.10
77321;BME280;66382;52.252;8.780;2023-05-10T12:10:07;100013.69;;;20.52;60.26
77321;BME280;66382;52.252;8.780;2023-05-10T12:12:41;100018.69;;;20.60;60.77
77321;BME280;66382;52.252;8.780;2023-05-10T12:15:11;100037.22;;;20.68;60.04
77321;BME280;66382;52.252;8.780;2023-05-10T12:17:37;100036.41;;;20.68;59.12
77321;BME280;66382;52.252;8.780;2023-05-10T12:20:20;100032.34;;;20.70;60.24
77321;BME280;66382;52.252;8.780;2023-05-10T12:22:47;100018.16;;;20.68;58.62
77321;BME280;66382;52.252;8.780;2023-05-10T12:25:14;100033.72;;;20.78;59.50
77321;BME280;66382;52.252;8.780;2023-05-10T12:27:47;100034.28;;;20.85;60.03
77321;BME280;66382;52.252;8.780;2023-05-10T12:30:19;100030.47;;;20.91;59.31
77321;BME280;66382;52.252;8.780;2023-05-10T12:32:44;100037.28;;;20.94;58.27
77321;BME280;66382;52.252;8.780;2023-05-10T12:35:10;100031.84;;;20.99;59.29
77321;BME280;66382;52.252;8.780;2023-05-10T12:37:36;100034.31;;;21.00;58.87
77321;BME280;66382;52.252;8.780;2023-05-10T12:40:02;100045.75;;;20.97;58.02
77321;BME280;66382;52.252;8.780;2023-05-10T12:42:27;100046.00;;;20.91;59.13
77321;BME280;66382;52.252;8.780;2023-05-10T12:44:56;100043.53;;;20.84;58.01
77321;BME280;66382;52.252;8.780;2023-05-10T12:47:22;100050.09;;;20.88;58.43
77321;BME280;66382;52.252;8.780;2023-05-10T12:49:48;100050.09;;;20.93;58.65
77321;BME280;66382;52.252;8.780;2023-05-10T12:52:13;100051.72;;;20.94;57.68
77321;BME280;66382;52.252;8.780;2023-05-10T12:54:39;100055.31;;;20.95;58.73
77321;BME280;66382;52.252;8.780;2023-05-10T12:57:05;100055.31;;;20.95;57.33
77321;BME280;66382;52.252;8.780;2023-05-10T12:59:30;100063.72;;;20.88;56.78
77321;BME280;66382;52.252;8.780;2023-05-10T13:01:58;100064.25;;;20.85;58.27
77321;BME280;66382;52.252;8.780;2023-05-10T13:04:23;100066.13;;;20.79;57.73
77321;BME280;66382;52.252;8.780;2023-05-10T13:06:49;100065.03;;;20.75;58.94